Everetts, North Carolina
Current Conditions -  °F | °C
As of 12:50 AM on Monday 20 Oct 2014 (Local Time) from KPGV Reporting Station
Haze Haze  
Wind Chill: 45°   Ceiling: 700
Heat Index: 45°   Visibility: 1mi
Dew Point: 45°   Wind: 0mph
Humidity: 100%   Direction: NA
Pressure: 30.15"   Gusts: NA
Location:  35.83°N, 77.17°W
Report Text: KPGV 200450Z AUTO 00000KT 1SM BR VV007 07/07 A3015 RMK AO2 VIS 1/2V5
Loading
Personal Weather Stations






























Interactive Weather Map
Tropical Storm Tracking
New forecast layout! Learn more

10-Day Weather Forecast

Advertisements
Track Severe Weather on mobile